Time;durP1;ratioP1;P1;durP2;ratioP2;P2;SDS_P1;SDS_P2;PMS_P1;PMS_P2;Temp;Humidity;BMP_temperature;BMP_pressure;BME280_temperature;BME280_humidity;BME280_pressure;Samples;Min_cycle;Max_cycle;Signal;HPM_P1;HPM_P2
2022/07/04 00:00:11;;;;;;;7.45;1.90;;;;;;;15.76;100.00;96885.59;5036903;28;20024;-74
2022/07/04 00:02:38;;;;;;;4.15;1.45;;;;;;;15.59;100.00;96877.75;5037200;28;20544;-74
2022/07/04 00:05:10;;;;;;;2.88;1.60;;;;;;;15.51;100.00;96875.59;5035957;28;20037;-74
2022/07/04 00:07:37;;;;;;;2.80;1.40;;;;;;;15.50;100.00;96884.75;5037264;28;20036;-71
2022/07/04 00:10:04;;;;;;;8.85;1.83;;;;;;;15.50;100.00;96882.06;5038688;28;20033;-71
2022/07/04 00:12:30;;;;;;;6.05;1.58;;;;;;;15.46;100.00;96881.78;5038061;28;20076;-71
2022/07/04 00:14:55;;;;;;;5.93;1.63;;;;;;;15.35;100.00;96877.47;5036510;28;20104;-73
2022/07/04 00:17:20;;;;;;;4.45;1.70;;;;;;;15.48;100.00;96881.50;5035849;28;20057;-74
2022/07/04 00:19:46;;;;;;;4.10;1.85;;;;;;;15.55;100.00;96868.56;5035267;28;20373;-74
2022/07/04 00:22:11;;;;;;;4.65;1.63;;;;;;;15.60;100.00;96873.97;5037534;28;20039;-74
2022/07/04 00:24:37;;;;;;;5.82;1.70;;;;;;;15.59;100.00;96872.34;5036646;28;20474;-74
2022/07/04 00:27:03;;;;;;;3.47;1.70;;;;;;;15.57;100.00;96875.31;5035971;28;20033;-74
2022/07/04 00:29:29;;;;;;;3.95;1.70;;;;;;;15.49;100.00;96870.47;5035583;28;20087;-74
2022/07/04 00:31:55;;;;;;;4.05;1.80;;;;;;;15.54;100.00;96872.34;5039608;28;20037;-74
2022/07/04 00:34:20;;;;;;;4.63;1.60;;;;;;;15.53;100.00;96874.22;5036066;28;20519;-74
2022/07/04 00:36:46;;;;;;;8.70;1.77;;;;;;;15.28;100.00;96875.03;5037711;28;20033;-74
2022/07/04 00:39:11;;;;;;;2.92;1.52;;;;;;;15.21;100.00;96869.09;5036343;28;20045;-74
2022/07/04 00:41:37;;;;;;;3.10;1.63;;;;;;;15.09;100.00;96875.78;5036595;28;20069;-74
2022/07/04 00:44:05;;;;;;;4.55;1.58;;;;;;;14.98;100.00;96873.09;5035502;28;20531;-74
2022/07/04 00:46:30;;;;;;;2.88;1.63;;;;;;;14.93;100.00;96877.66;5035386;28;20044;-74
2022/07/04 00:48:56;;;;;;;5.20;1.40;;;;;;;14.98;100.00;96872.28;5018073;28;20025;-74
2022/07/04 00:51:23;;;;;;;9.13;1.75;;;;;;;14.88;100.00;96873.06;5036425;28;20041;-74
2022/07/04 00:53:50;;;;;;;5.13;1.75;;;;;;;14.79;100.00;96871.16;5043664;28;20075;-74
2022/07/04 00:56:16;;;;;;;4.82;1.88;;;;;;;14.72;100.00;96861.44;5033684;28;20025;-74
2022/07/04 00:58:41;;;;;;;4.07;1.65;;;;;;;14.74;100.00;96861.97;5031953;28;20022;-74
2022/07/04 01:01:07;;;;;;;4.72;1.90;;;;;;;14.62;100.00;96861.38;5036343;28;20048;-74
2022/07/04 01:03:32;;;;;;;6.60;1.88;;;;;;;14.62;100.00;96864.09;5034484;28;20025;-74
2022/07/04 01:06:00;;;;;;;7.03;1.80;;;;;;;14.61;100.00;96867.84;5034992;28;20032;-74
2022/07/04 01:08:25;;;;;;;4.75;1.85;;;;;;;14.57;100.00;96872.16;5034682;28;20609;-73
2022/07/04 01:10:51;;;;;;;5.63;2.30;;;;;;;14.56;100.00;96875.13;5035545;28;20045;-74
2022/07/04 01:13:21;;;;;;;3.40;1.63;;;;;;;14.62;100.00;96879.44;5034778;28;20112;-73
2022/07/04 01:15:46;;;;;;;5.22;1.40;;;;;;;14.70;100.00;96876.22;5035079;28;20064;-73
2022/07/04 01:18:12;;;;;;;3.50;1.65;;;;;;;14.64;100.00;96875.41;5032319;28;20186;-74
2022/07/04 01:20:37;;;;;;;4.57;1.60;;;;;;;14.58;100.00;96873.78;5038414;28;20045;-74
2022/07/04 01:23:03;;;;;;;3.78;1.80;;;;;;;14.41;100.00;96879.34;5017752;28;20029;-74
2022/07/04 01:25:30;;;;;;;6.05;1.70;;;;;;;14.08;100.00;96880.47;5035278;28;20036;-74
2022/07/04 01:27:55;;;;;;;4.88;1.70;;;;;;;14.12;100.00;96870.84;5037973;28;20026;-74
2022/07/04 01:30:21;;;;;;;3.20;1.88;;;;;;;13.82;100.00;96881.41;5034128;28;20380;-74
2022/07/04 01:32:46;;;;;;;3.80;1.80;;;;;;;13.87;100.00;96878.75;5036899;28;20110;-74
2022/07/04 01:35:12;;;;;;;6.18;2.00;;;;;;;13.73;100.00;96893.72;5032309;28;20090;-74
2022/07/04 01:37:38;;;;;;;3.92;1.85;;;;;;;13.73;100.00;96877.56;5036528;28;20033;-74
2022/07/04 01:40:04;;;;;;;8.15;1.63;;;;;;;13.87;100.00;96878.75;5035214;28;20359;-74
2022/07/04 01:42:30;;;;;;;4.88;2.03;;;;;;;13.97;100.00;96884.19;5036144;28;20033;-74
2022/07/04 01:44:55;;;;;;;5.82;1.80;;;;;;;13.88;100.00;96891.94;5033663;28;20037;-73
2022/07/04 01:47:20;;;;;;;7.63;1.70;;;;;;;13.89;100.00;96887.38;5034310;28;20090;-73
2022/07/04 01:49:46;;;;;;;3.13;1.70;;;;;;;13.87;100.00;96889.53;5034802;28;20486;-74
2022/07/04 01:52:11;;;;;;;5.75;1.77;;;;;;;13.96;100.00;96892.53;5035415;28;20438;-74
2022/07/04 01:54:37;;;;;;;3.30;1.70;;;;;;;13.91;100.00;96896.00;5033622;28;20564;-74
2022/07/04 01:57:02;;;;;;;3.53;1.70;;;;;;;13.92;100.00;96903.78;5035381;28;20064;-73
2022/07/04 02:02:12;;;;;;;6.90;2.42;;;;;;;13.56;100.00;96918.06;5034602;28;20538;-74
2022/07/04 02:04:38;;;;;;;4.05;1.90;;;;;;;13.35;100.00;96925.13;5034361;28;20041;-74
2022/07/04 02:07:03;;;;;;;5.25;1.98;;;;;;;13.13;100.00;96927.81;5035455;28;20447;-74
2022/07/04 02:09:30;;;;;;;5.93;1.90;;;;;;;13.16;100.00;96919.28;5031155;28;20021;-74
2022/07/04 02:14:41;;;;;;;3.90;1.70;;;;;;;13.27;100.00;96923.69;5036112;28;20041;-74
2022/07/04 02:17:07;;;;;;;7.18;1.95;;;;;;;13.36;100.00;96916.78;5036095;28;20049;-74
2022/07/04 02:19:32;;;;;;;4.50;1.65;;;;;;;13.41;100.00;96917.91;5029003;28;20507;-73
2022/07/04 02:21:58;;;;;;;5.25;1.70;;;;;;;13.45;100.00;96919.81;5037049;28;20033;-74
2022/07/04 02:24:23;;;;;;;5.20;1.60;;;;;;;13.31;100.00;96940.16;5036191;28;20040;-73
2022/07/04 02:26:49;;;;;;;4.53;1.83;;;;;;;13.23;100.00;96932.50;5033974;28;20052;-73
2022/07/04 02:29:15;;;;;;;3.92;1.67;;;;;;;13.19;100.00;96934.06;5032032;28;20045;-74
2022/07/04 02:31:41;;;;;;;3.53;1.70;;;;;;;12.98;100.00;96928.47;5033759;28;20088;-74
2022/07/04 02:34:07;;;;;;;4.70;1.58;;;;;;;13.09;100.00;96938.28;5034719;28;20071;-73
2022/07/04 02:36:32;;;;;;;6.20;1.58;;;;;;;13.13;100.00;96933.19;5034432;28;20105;-74
2022/07/04 02:38:58;;;;;;;3.45;1.70;;;;;;;13.17;100.00;96930.81;5034566;28;20037;-74
2022/07/04 02:41:23;;;;;;;4.38;1.73;;;;;;;13.18;100.00;96930.56;5041110;28;20040;-74
2022/07/04 02:43:48;;;;;;;4.10;2.03;;;;;;;13.16;100.00;96938.09;5057428;28;20086;-74
2022/07/04 02:46:14;;;;;;;3.63;1.40;;;;;;;13.21;100.00;96934.66;5055102;28;20039;-75
2022/07/04 02:48:39;;;;;;;4.85;1.75;;;;;;;13.08;100.00;96936.66;5034889;28;20033;-74
2022/07/04 02:51:05;;;;;;;4.03;1.73;;;;;;;13.07;100.00;96935.03;5035619;28;20102;-73
2022/07/04 02:53:30;;;;;;;6.70;1.80;;;;;;;13.09;100.00;96940.97;5052102;28;20367;-74
2022/07/04 02:55:55;;;;;;;4.13;1.85;;;;;;;12.75;100.00;96942.16;5036036;28;20510;-74
2022/07/04 02:58:21;;;;;;;4.82;1.92;;;;;;;12.58;100.00;96944.09;5037921;28;20606;-73
2022/07/04 03:00:49;;;;;;;6.72;2.20;;;;;;;12.64;100.00;96948.47;5038260;28;20063;-74
2022/07/04 03:03:14;;;;;;;5.03;2.17;;;;;;;12.73;100.00;96946.97;5036596;28;20032;-73
2022/07/04 03:05:40;;;;;;;7.03;2.00;;;;;;;12.78;100.00;96950.53;5036581;28;20235;-74
2022/07/04 03:08:05;;;;;;;3.25;1.63;;;;;;;12.81;100.00;96950.03;5038813;28;20120;-74
2022/07/04 03:10:30;;;;;;;3.72;1.85;;;;;;;12.84;100.00;96951.44;5036583;28;20105;-74
2022/07/04 03:12:56;;;;;;;3.33;2.08;;;;;;;12.85;100.00;96950.38;5036407;28;20025;-73
2022/07/04 03:15:21;;;;;;;4.47;1.67;;;;;;;12.82;100.00;96953.53;5035234;28;20060;-73
2022/07/04 03:17:47;;;;;;;4.25;1.95;;;;;;;12.45;100.00;96948.78;5037934;28;20060;-73
2022/07/04 03:20:12;;;;;;;6.93;1.88;;;;;;;12.16;100.00;96950.00;5036772;28;20036;-73
2022/07/04 03:22:38;;;;;;;6.80;2.20;;;;;;;12.07;100.00;96962.19;5038345;28;20471;-73
2022/07/04 03:25:05;;;;;;;3.10;1.77;;;;;;;12.07;100.00;96954.97;5035826;28;20029;-74
2022/07/04 03:27:30;;;;;;;4.80;1.90;;;;;;;12.17;100.00;96947.06;5039201;28;20033;-73
2022/07/04 03:29:55;;;;;;;4.47;1.80;;;;;;;12.14;100.00;96947.56;5036232;28;20657;-73
2022/07/04 03:32:21;;;;;;;4.43;1.98;;;;;;;12.14;100.00;96944.03;5038661;28;20032;-73
2022/07/04 03:34:46;;;;;;;4.72;2.10;;;;;;;12.20;100.00;96946.56;5038503;28;20346;-73
2022/07/04 03:37:12;;;;;;;7.25;1.80;;;;;;;12.26;100.00;96945.56;5037397;28;20530;-73
2022/07/04 03:39:37;;;;;;;4.65;2.08;;;;;;;12.35;100.00;96939.78;5036010;28;20058;-73
2022/07/04 03:42:03;;;;;;;4.55;1.75;;;;;;;12.44;100.00;96949.00;5039947;28;20037;-74
2022/07/04 03:44:28;;;;;;;5.07;2.08;;;;;;;12.46;100.00;96949.59;5037101;28;20071;-73
2022/07/04 03:46:54;;;;;;;5.45;1.98;;;;;;;12.38;100.00;96961.56;5036610;28;20045;-73
2022/07/04 03:49:19;;;;;;;6.18;1.90;;;;;;;12.41;100.00;96957.56;5038439;28;20029;-73
2022/07/04 03:51:45;;;;;;;4.32;2.17;;;;;;;12.43;100.00;96961.63;5038544;28;20401;-73
2022/07/04 03:54:10;;;;;;;6.03;2.08;;;;;;;12.39;100.00;96959.69;5037897;28;20064;-73
2022/07/04 03:56:36;;;;;;;5.25;2.03;;;;;;;12.37;100.00;96967.97;5036755;28;20040;-73
2022/07/04 03:59:02;;;;;;;6.40;1.85;;;;;;;12.30;100.00;96972.72;5034998;28;20399;-73
2022/07/04 04:01:29;;;;;;;6.70;2.72;;;;;;;12.21;100.00;96968.81;5038525;28;20034;-73
2022/07/04 04:06:38;;;;;;;4.28;1.80;;;;;;;12.23;100.00;96980.94;5034111;28;20033;-74
2022/07/04 04:09:04;;;;;;;4.57;1.88;;;;;;;12.34;100.00;96984.59;5034742;28;20324;-73
2022/07/04 04:11:30;;;;;;;3.60;1.80;;;;;;;12.27;100.00;96983.94;5037252;28;20442;-73
2022/07/04 04:13:56;;;;;;;7.72;1.88;;;;;;;12.19;100.00;96979.81;5052762;28;20468;-73
2022/07/04 04:16:21;;;;;;;3.53;1.75;;;;;;;12.09;100.00;96984.22;5037115;28;20062;-74
2022/07/04 04:18:47;;;;;;;5.80;2.13;;;;;;;12.05;100.00;96988.44;5034800;28;20411;-74
2022/07/04 04:21:12;;;;;;;8.65;2.45;;;;;;;12.18;100.00;96994.28;5053488;28;20073;-74
2022/07/04 04:23:40;;;;;;;5.50;2.50;;;;;;;12.26;100.00;96988.50;5040469;28;20314;-74
2022/07/04 04:26:06;;;;;;;7.13;2.92;;;;;;;12.19;100.00;96997.78;5039002;28;20083;-74
2022/07/04 04:28:31;;;;;;;11.73;4.95;;;;;;;12.20;100.00;96999.41;5033833;28;20036;-74
2022/07/04 04:30:56;;;;;;;10.63;4.47;;;;;;;12.24;100.00;96987.13;5038084;28;20523;-73
2022/07/04 04:33:22;;;;;;;11.52;5.13;;;;;;;12.30;100.00;96986.16;5023321;28;20041;-74
2022/07/04 04:35:47;;;;;;;13.70;6.35;;;;;;;12.43;100.00;96993.03;5035663;28;20493;-74
2022/07/04 04:38:13;;;;;;;13.50;5.00;;;;;;;12.38;100.00;96993.78;5036284;28;20113;-74
2022/07/04 04:40:38;;;;;;;11.68;4.40;;;;;;;12.39;100.00;96992.72;5020704;28;20061;-74
2022/07/04 04:43:04;;;;;;;10.57;4.05;;;;;;;12.42;100.00;96997.59;5039431;28;20056;-74
2022/07/04 04:45:29;;;;;;;9.23;3.90;;;;;;;12.46;100.00;97004.09;5037688;28;20537;-74
2022/07/04 04:47:55;;;;;;;11.15;4.40;;;;;;;12.47;100.00;97005.72;5038710;28;20122;-74
2022/07/04 04:50:20;;;;;;;14.38;6.40;;;;;;;12.62;100.00;97007.00;5034202;28;20029;-74
2022/07/04 04:52:46;;;;;;;19.88;8.50;;;;;;;12.65;100.00;97001.94;5038307;28;20476;-74
2022/07/04 04:55:11;;;;;;;15.93;8.77;;;;;;;12.79;100.00;97000.50;5035660;28;20377;-73
2022/07/04 04:57:37;;;;;;;17.50;7.25;;;;;;;12.93;100.00;97003.63;5037170;28;20374;-74
2022/07/04 05:00:04;;;;;;;16.67;8.05;;;;;;;13.04;100.00;97001.88;5034431;28;20128;-74
2022/07/04 05:02:35;;;;;;;14.85;8.02;;;;;;;13.01;100.00;97005.88;5039664;28;20099;-73
2022/07/04 05:05:06;;;;;;;12.65;7.15;;;;;;;13.10;100.00;97007.06;5034874;28;20041;-74
2022/07/04 05:07:31;;;;;;;10.38;5.53;;;;;;;13.01;100.00;97005.88;5040397;28;20043;-73
2022/07/04 05:09:59;;;;;;;10.77;5.28;;;;;;;12.96;100.00;97005.00;5035635;28;20038;-74
2022/07/04 05:12:25;;;;;;;11.10;5.30;;;;;;;12.95;100.00;96996.13;5035884;28;20028;-74
2022/07/04 05:14:52;;;;;;;8.93;4.75;;;;;;;12.97;100.00;97004.75;5034687;28;20037;-74
2022/07/04 05:17:18;;;;;;;10.60;5.50;;;;;;;12.95;100.00;97003.38;5034573;28;20118;-74
2022/07/04 05:19:43;;;;;;;9.25;4.90;;;;;;;13.01;100.00;96992.44;5035368;28;20041;-73
2022/07/04 05:22:10;;;;;;;6.60;3.38;;;;;;;13.14;100.00;97004.66;5036988;28;20025;-74
2022/07/04 05:24:39;;;;;;;10.88;4.55;;;;;;;13.33;100.00;97002.50;5035874;28;20228;-73
2022/07/04 05:27:06;;;;;;;9.73;5.50;;;;;;;13.46;100.00;97010.16;5035286;28;20044;-73
2022/07/04 05:29:31;;;;;;;8.07;5.28;;;;;;;13.57;100.00;97009.22;5036883;28;20111;-73
2022/07/04 05:31:57;;;;;;;10.25;4.50;;;;;;;13.69;100.00;97005.53;5036718;28;20108;-73
2022/07/04 05:34:22;;;;;;;6.93;3.63;;;;;;;13.81;100.00;97012.41;5019827;28;20021;-74
2022/07/04 05:36:48;;;;;;;6.20;3.60;;;;;;;13.91;100.00;97019.72;5037378;28;20419;-74
2022/07/04 05:39:14;;;;;;;6.88;3.13;;;;;;;13.98;100.00;97014.97;5033929;28;20124;-73
2022/07/04 05:41:39;;;;;;;7.50;3.05;;;;;;;14.00;100.00;97015.50;5038077;28;20041;-73
2022/07/04 05:44:05;;;;;;;6.75;2.58;;;;;;;14.11;100.00;97019.91;5022737;28;20021;-74
2022/07/04 05:46:30;;;;;;;7.03;1.88;;;;;;;14.11;100.00;97019.09;5033606;28;20037;-74
2022/07/04 05:48:56;;;;;;;3.72;2.70;;;;;;;14.25;100.00;97024.88;5035275;28;20029;-73
2022/07/04 05:51:21;;;;;;;5.53;2.70;;;;;;;14.31;100.00;97030.00;5020723;28;20055;-74
2022/07/04 05:53:47;;;;;;;4.65;1.95;;;;;;;14.38;100.00;97035.19;5030669;28;20445;-74
2022/07/04 05:56:13;;;;;;;5.47;2.20;;;;;;;14.38;100.00;97029.78;5036866;28;20033;-74
2022/07/04 05:58:38;;;;;;;7.82;2.40;;;;;;;14.28;100.00;97035.91;5048081;28;20034;-74
2022/07/04 06:01:04;;;;;;;6.10;2.17;;;;;;;14.39;100.00;97034.91;5016678;28;20036;-74
2022/07/04 06:03:30;;;;;;;5.43;1.90;;;;;;;14.52;100.00;97035.56;5036624;28;20052;-74
2022/07/04 06:05:55;;;;;;;6.95;1.77;;;;;;;14.61;100.00;97023.25;5005654;28;20029;-74
2022/07/04 06:08:21;;;;;;;6.50;1.95;;;;;;;14.61;100.00;97007.91;5031859;28;20032;-74
2022/07/04 06:10:47;;;;;;;5.25;2.15;;;;;;;14.71;100.00;97029.53;5036312;28;20104;-74
2022/07/04 06:13:13;;;;;;;5.15;1.80;;;;;;;14.73;100.00;97019.28;5034360;28;20396;-74
2022/07/04 06:15:39;;;;;;;5.90;2.08;;;;;;;14.73;100.00;97021.97;5037407;28;20035;-74
2022/07/04 06:18:04;;;;;;;5.80;2.00;;;;;;;14.72;100.00;97006.09;5035750;28;20057;-74
2022/07/04 06:20:30;;;;;;;6.10;1.70;;;;;;;14.62;100.00;97009.50;5034873;28;20352;-73
2022/07/04 06:22:56;;;;;;;8.65;1.73;;;;;;;14.70;100.00;97021.69;5014302;28;20136;-74
2022/07/04 06:25:22;;;;;;;5.88;1.80;;;;;;;14.79;100.00;97008.56;5022476;28;20041;-74
2022/07/04 06:27:49;;;;;;;4.82;1.60;;;;;;;14.84;100.00;97012.06;5050020;28;20131;-74
2022/07/04 06:30:16;;;;;;;6.97;1.83;;;;;;;14.88;100.00;97012.38;5035952;28;20181;-74
2022/07/04 06:32:48;;;;;;;3.65;1.50;;;;;;;14.95;100.00;97004.84;5031563;28;20037;-74
2022/07/04 06:38:01;;;;;;;6.32;1.60;;;;;;;15.10;100.00;97017.56;5035963;28;20037;-74
2022/07/04 06:40:26;;;;;;;4.35;1.80;;;;;;;15.13;100.00;97007.06;5033560;28;20028;-74
2022/07/04 06:42:52;;;;;;;5.35;1.60;;;;;;;15.18;100.00;97012.50;5035407;28;20033;-74
2022/07/04 06:45:18;;;;;;;5.25;1.67;;;;;;;15.15;100.00;97022.97;5035206;28;20041;-74
2022/07/04 06:47:44;;;;;;;3.42;1.77;;;;;;;15.18;100.00;97020.59;5038247;28;20048;-74
2022/07/04 06:50:10;;;;;;;4.85;1.35;;;;;;;15.23;100.00;97031.38;5034288;28;20195;-74
2022/07/04 06:52:35;;;;;;;4.20;1.30;;;;;;;15.12;100.00;97027.03;5035029;28;20041;-74
2022/07/04 06:55:01;;;;;;;4.72;1.40;;;;;;;15.17;100.00;97032.41;5030434;28;20044;-74
2022/07/04 06:57:26;;;;;;;5.65;1.40;;;;;;;15.31;100.00;97030.84;5040634;28;20026;-74
2022/07/04 06:59:52;;;;;;;3.67;1.35;;;;;;;15.37;100.00;97030.88;5051464;28;20465;-74
2022/07/04 07:02:17;;;;;;;4.30;1.50;;;;;;;15.46;100.00;97021.19;5025494;28;20040;-74
2022/07/04 07:04:43;;;;;;;4.82;1.40;;;;;;;15.50;100.00;97027.69;5003114;28;20376;-74
2022/07/04 07:07:09;;;;;;;2.38;1.00;;;;;;;15.36;100.00;97027.38;5025766;28;20041;-74
2022/07/04 07:09:35;;;;;;;7.90;1.30;;;;;;;15.52;100.00;97022.84;5019365;28;20040;-74
2022/07/04 07:12:01;;;;;;;4.78;1.20;;;;;;;15.59;100.00;97015.31;5050184;28;20033;-74
2022/07/04 07:14:27;;;;;;;5.43;1.20;;;;;;;15.73;100.00;97021.03;5034682;28;20130;-74
2022/07/04 07:16:52;;;;;;;6.13;1.33;;;;;;;15.68;100.00;97010.22;5035081;28;20090;-75
2022/07/04 07:19:18;;;;;;;7.57;1.00;;;;;;;15.59;100.00;97023.38;5021890;28;20041;-74
2022/07/04 07:21:43;;;;;;;5.65;1.27;;;;;;;15.68;100.00;97021.00;5023274;28;20037;-74
2022/07/04 07:24:09;;;;;;;5.45;1.58;;;;;;;15.60;100.00;97006.94;5050911;28;20030;-74
2022/07/04 07:26:34;;;;;;;3.30;0.93;;;;;;;15.69;100.00;97004.53;5003185;28;20037;-74
2022/07/04 07:29:00;;;;;;;5.40;1.30;;;;;;;15.69;100.00;97007.25;5033718;28;20029;-74
2022/07/04 07:31:26;;;;;;;3.10;1.10;;;;;;;15.81;100.00;96998.91;5035266;28;20132;-74
2022/07/04 07:33:51;;;;;;;6.10;1.17;;;;;;;15.98;100.00;97006.75;5034525;28;20322;-74
2022/07/04 07:36:17;;;;;;;9.02;1.00;;;;;;;16.02;100.00;97011.31;5032216;28;20032;-74
2022/07/04 07:38:42;;;;;;;4.15;1.30;;;;;;;16.07;100.00;96999.72;5004536;28;20052;-74
2022/07/04 07:41:09;;;;;;;4.82;1.30;;;;;;;15.97;100.00;97002.44;5013321;28;20049;-74
2022/07/04 07:43:35;;;;;;;3.53;0.98;;;;;;;15.99;100.00;97006.47;5038368;28;20021;-74
2022/07/04 07:46:03;;;;;;;3.22;1.15;;;;;;;16.15;100.00;97012.69;5037773;28;20420;-74
2022/07/04 07:48:28;;;;;;;3.70;1.35;;;;;;;16.13;100.00;97012.16;5057567;28;20302;-74
2022/07/04 07:50:54;;;;;;;3.25;1.02;;;;;;;16.18;100.00;97006.72;5040355;28;20033;-74
2022/07/04 07:53:19;;;;;;;2.67;0.90;;;;;;;16.20;100.00;96995.69;5022333;28;20107;-74
2022/07/04 07:55:45;;;;;;;2.67;1.00;;;;;;;16.20;100.00;97007.28;5039288;28;20037;-74
2022/07/04 07:58:10;;;;;;;4.78;0.90;;;;;;;16.30;100.00;97012.66;5022852;28;20034;-74
2022/07/04 08:00:36;;;;;;;2.67;0.75;;;;;;;16.31;100.00;97013.47;5022282;28;20033;-74
2022/07/04 08:05:46;;;;;;;3.80;1.08;;;;;;;16.45;100.00;97003.75;5036869;28;20128;-74
2022/07/04 08:08:14;;;;;;;2.90;0.77;;;;;;;16.49;100.00;97004.00;5040082;28;20785;-74
2022/07/04 08:10:40;;;;;;;1.90;0.60;;;;;;;16.48;100.00;96991.56;5042113;28;20029;-74
2022/07/04 08:13:10;;;;;;;1.98;0.70;;;;;;;16.56;100.00;96993.72;5009869;28;20084;-74
2022/07/04 08:15:36;;;;;;;2.10;0.60;;;;;;;16.65;100.00;96997.47;5054936;28;20681;-74
2022/07/04 08:18:01;;;;;;;5.00;1.00;;;;;;;16.75;100.00;96997.50;5037897;28;20053;-74
2022/07/04 08:20:27;;;;;;;3.35;1.00;;;;;;;16.76;100.00;96996.41;5033675;28;20068;-74
2022/07/04 08:22:52;;;;;;;2.25;0.80;;;;;;;16.78;100.00;96988.84;5022138;28;20033;-74
2022/07/04 08:25:18;;;;;;;2.80;0.98;;;;;;;16.90;100.00;96996.66;5022028;28;20097;-74
2022/07/04 08:27:44;;;;;;;4.00;1.02;;;;;;;16.91;100.00;96998.25;5041764;28;20456;-74
2022/07/04 08:30:10;;;;;;;5.15;1.00;;;;;;;16.90;100.00;96973.13;5017401;28;20029;-74
2022/07/04 08:32:35;;;;;;;2.88;0.73;;;;;;;17.01;100.00;96978.50;5006325;28;20497;-74
2022/07/04 08:35:03;;;;;;;3.60;0.90;;;;;;;17.09;100.00;96986.03;5006436;28;20258;-74
2022/07/04 08:37:28;;;;;;;1.90;0.70;;;;;;;17.11;99.27;96981.13;5056421;28;20637;-74
2022/07/04 08:39:54;;;;;;;2.08;0.60;;;;;;;17.27;100.00;96985.38;5022599;28;20036;-74
2022/07/04 08:42:21;;;;;;;3.80;0.80;;;;;;;17.38;99.81;96986.97;5051916;28;20038;-74
2022/07/04 08:44:52;;;;;;;6.70;0.70;;;;;;;17.43;100.00;96978.84;5034497;28;20041;-74
2022/07/04 08:47:24;;;;;;;2.33;0.65;;;;;;;17.27;97.53;96982.69;5036592;28;20375;-74
2022/07/04 08:50:10;;;;;;;1.60;0.70;;;;;;;17.42;99.50;96985.31;5007570;28;20777;-74
2022/07/04 08:52:47;;;;;;;4.95;0.80;;;;;;;17.52;100.00;96985.25;5041514;28;20040;-74
2022/07/04 09:00:45;;;;;;;1.95;0.60;;;;;;;17.72;97.20;96984.34;5038738;28;20030;-75
2022/07/04 09:03:11;;;;;;;2.58;0.80;;;;;;;17.77;94.71;96994.34;5038859;28;20029;-74
2022/07/04 09:05:37;;;;;;;1.70;0.60;;;;;;;17.80;94.34;96985.63;5035006;28;20041;-74
2022/07/04 09:08:04;;;;;;;2.63;0.80;;;;;;;17.81;94.13;96988.06;5053430;28;20033;-74
2022/07/04 09:10:29;;;;;;;2.58;0.60;;;;;;;17.82;93.50;96991.59;5031377;28;20102;-73
2022/07/04 09:12:55;;;;;;;2.90;0.90;;;;;;;18.01;95.63;96995.22;5036141;28;20029;-74
2022/07/04 09:15:21;;;;;;;2.65;0.63;;;;;;;18.20;90.75;96989.91;5039225;28;20041;-74
2022/07/04 09:17:47;;;;;;;2.83;0.70;;;;;;;18.29;90.77;96992.84;5040130;28;20039;-74
2022/07/04 09:20:15;;;;;;;3.58;0.60;;;;;;;18.14;92.07;96990.28;5039656;28;20025;-74
2022/07/04 09:22:42;;;;;;;3.17;0.60;;;;;;;18.29;94.52;96988.22;5014361;28;20048;-74
2022/07/04 09:25:08;;;;;;;1.92;0.50;;;;;;;18.42;90.24;96988.66;5033971;28;20033;-73
2022/07/04 09:27:39;;;;;;;2.20;0.60;;;;;;;18.56;87.40;96984.97;5019552;28;20094;-74
2022/07/04 09:30:06;;;;;;;1.05;0.40;;;;;;;18.71;86.29;96975.13;5033237;28;20476;-74
2022/07/04 09:32:44;;;;;;;2.10;0.70;;;;;;;18.74;86.89;96971.81;5034417;28;20036;-74
2022/07/04 09:35:18;;;;;;;2.83;0.60;;;;;;;18.58;87.66;96980.06;5013542;28;20167;-74
2022/07/04 09:37:55;;;;;;;1.23;0.50;;;;;;;18.81;88.10;96970.38;5035755;28;20032;-74
2022/07/04 09:40:31;;;;;;;2.17;0.60;;;;;;;19.03;85.90;96969.03;5034330;28;20066;-74
2022/07/04 09:42:59;;;;;;;2.92;0.60;;;;;;;19.36;88.08;96967.25;5036823;28;20556;-74
2022/07/04 09:45:26;;;;;;;2.15;0.60;;;;;;;19.54;87.50;96965.66;5032299;28;20109;-73
2022/07/04 09:47:58;;;;;;;2.60;0.70;;;;;;;19.72;86.01;96962.16;5039564;28;20021;-74
2022/07/04 09:50:25;;;;;;;;;;;;;;;19.62;83.39;96960.41;5034903;28;20521;-74
2022/07/04 09:53:02;;;;;;;2.28;0.70;;;;;;;19.81;83.02;96951.44;5056429;28;20376;-74
2022/07/04 09:55:32;;;;;;;1.63;0.57;;;;;;;20.24;76.94;96961.03;5053691;28;20037;-74
2022/07/04 09:58:06;;;;;;;2.65;0.60;;;;;;;20.48;80.42;96960.91;5054624;28;20042;-74
2022/07/04 10:00:37;;;;;;;1.90;0.70;;;;;;;20.38;76.64;96971.94;5040369;28;20590;-74
2022/07/04 10:03:35;;;;;;;1.38;0.60;;;;;;;19.88;79.71;96965.44;5034542;28;20081;-74
2022/07/04 10:06:09;;;;;;;2.78;0.60;;;;;;;19.84;80.74;96969.84;5002585;28;20039;-74
2022/07/04 10:08:35;;;;;;;1.38;0.50;;;;;;;19.92;79.56;96971.88;5016640;28;20488;-74
2022/07/04 10:11:03;;;;;;;1.08;0.50;;;;;;;19.98;78.48;96979.66;5019719;28;20048;-74
2022/07/04 10:13:30;;;;;;;1.15;0.50;;;;;;;20.15;68.57;96973.69;5038179;28;20041;-74
2022/07/04 10:15:56;;;;;;;1.88;0.60;;;;;;;20.18;67.27;96977.72;5036722;28;20328;-74
2022/07/04 10:18:23;;;;;;;1.70;0.40;;;;;;;20.28;69.33;96972.91;5036281;28;20092;-74
2022/07/04 10:20:49;;;;;;;1.77;0.60;;;;;;;20.46;63.89;96951.44;5034840;28;20041;-74
2022/07/04 10:23:16;;;;;;;1.23;0.43;;;;;;;20.62;66.19;96965.56;5036740;28;20089;-74
2022/07/04 10:25:42;;;;;;;1.13;0.40;;;;;;;20.67;66.52;96952.66;5042698;28;20028;-74
2022/07/04 10:28:08;;;;;;;1.27;0.47;;;;;;;20.67;62.05;96947.22;5037305;28;20210;-74
2022/07/04 10:30:40;;;;;;;1.60;0.50;;;;;;;20.88;60.38;96941.41;5057507;28;20029;-74
2022/07/04 10:33:08;;;;;;;2.58;0.60;;;;;;;20.97;72.01;96942.31;5038460;28;20079;-74
2022/07/04 10:35:48;;;;;;;1.70;0.50;;;;;;;21.21;64.52;96939.34;4668588;28;10000218;-74
2022/07/04 10:38:16;;;;;;;2.10;0.40;;;;;;;21.13;61.15;96936.25;5033836;28;20136;-74
2022/07/04 10:40:45;;;;;;;3.10;0.40;;;;;;;21.26;61.97;96937.34;5037607;28;20416;-74
2022/07/04 10:43:41;;;;;;;2.63;0.73;;;;;;;21.38;56.01;96931.38;5049110;28;20079;-74
2022/07/04 10:46:15;;;;;;;3.40;0.73;;;;;;;21.62;58.40;96934.63;5034119;28;20041;-74
2022/07/04 10:49:04;;;;;;;3.25;0.57;;;;;;;21.61;63.41;96932.22;5053253;28;20037;-74
2022/07/04 10:51:44;;;;;;;1.48;0.50;;;;;;;21.74;55.14;96936.81;5019164;28;20539;-74
2022/07/04 10:54:15;;;;;;;1.95;0.60;;;;;;;21.87;62.06;96941.41;5033152;28;20471;-74
2022/07/04 10:56:44;;;;;;;1.65;0.60;;;;;;;22.11;64.46;96940.31;5048458;28;20407;-74
2022/07/04 10:59:12;;;;;;;2.60;0.60;;;;;;;22.37;52.94;96944.00;5034655;28;20041;-74
2022/07/04 11:01:38;;;;;;;3.35;0.60;;;;;;;22.50;52.28;96937.66;5036087;28;20416;-74
2022/07/04 11:04:03;;;;;;;1.75;0.70;;;;;;;22.59;46.80;96928.72;5034442;28;20326;-74
2022/07/04 11:06:44;;;;;;;2.08;0.57;;;;;;;22.71;47.60;96943.34;5034665;28;20572;-74
2022/07/04 11:09:13;;;;;;;2.72;0.50;;;;;;;22.74;45.74;96926.38;5031918;28;20045;-74
2022/07/04 11:11:51;;;;;;;1.75;0.70;;;;;;;22.97;45.75;96935.31;5034402;28;20064;-74
2022/07/04 11:14:41;;;;;;;1.00;0.50;;;;;;;23.29;43.39;96925.09;5026021;28;20043;-74
2022/07/04 11:17:18;;;;;;;2.15;0.70;;;;;;;23.66;45.84;96929.19;5050885;28;20045;-74
2022/07/04 11:19:43;;;;;;;2.20;0.70;;;;;;;23.93;48.14;96930.75;5064772;28;20046;-74
2022/07/04 11:22:10;;;;;;;1.30;0.50;;;;;;;24.31;46.32;96933.59;5038130;28;20056;-74
2022/07/04 11:24:37;;;;;;;1.65;0.73;;;;;;;24.59;44.69;96923.09;5053123;28;20088;-74
2022/07/04 11:27:02;;;;;;;4.28;0.70;;;;;;;25.32;44.45;96927.56;5038244;28;20365;-74
2022/07/04 11:29:29;;;;;;;4.22;0.90;;;;;;;26.38;41.31;96923.31;5037772;28;20159;-74
2022/07/04 11:31:55;;;;;;;2.97;0.90;;;;;;;26.99;37.65;96935.50;5037859;28;20039;-74
2022/07/04 11:34:24;;;;;;;1.67;0.70;;;;;;;28.12;33.72;96918.94;5035834;28;20237;-74
2022/07/04 11:36:51;;;;;;;1.77;0.70;;;;;;;29.11;31.88;96923.50;5039371;28;20072;-74
2022/07/04 11:39:21;;;;;;;1.92;0.60;;;;;;;30.72;30.35;96929.59;5036399;28;20033;-74
2022/07/04 11:47:35;;;;;;;4.43;0.63;;;;;;;34.35;22.30;96929.81;5035311;28;20591;-74
2022/07/04 11:50:03;;;;;;;5.43;0.95;;;;;;;35.06;22.08;96920.81;5036331;28;20464;-74